Time;durP1;ratioP1;P1;durP2;ratioP2;P2;SDS_P1;SDS_P2;PMS_P1;PMS_P2;Temp;Humidity;BMP_temperature;BMP_pressure;BME280_temperature;BME280_humidity;BME280_pressure;Samples;Min_cycle;Max_cycle;Signal;HPM_P1;HPM_P2
2023/07/03 00:00:12;;;;;;;;;;;17.90;98.80;;;;;;7335838;19;109017;-64
2023/07/03 00:02:39;;;;;;;;;;;17.80;98.80;;;;;;7334498;19;110077;-62
2023/07/03 00:05:10;;;;;;;;;;;17.80;98.90;;;;;;7337083;19;109912;-62
2023/07/03 00:07:38;;;;;;;;;;;17.80;99.10;;;;;;7338670;19;109676;-62
2023/07/03 00:10:05;;;;;;;;;;;17.80;99.20;;;;;;7336180;19;109661;-62
2023/07/03 00:12:32;;;;;;;;;;;17.80;99.40;;;;;;7335014;19;109077;-62
2023/07/03 00:14:59;;;;;;;;;;;17.80;99.30;;;;;;7340949;19;109215;-62
2023/07/03 00:17:27;;;;;;;;;;;17.80;99.60;;;;;;7335869;19;108997;-62
2023/07/03 00:19:54;;;;;;;;;;;17.80;99.40;;;;;;7334576;19;108329;-62
2023/07/03 00:22:21;;;;;;;;;;;17.80;99.70;;;;;;7337253;19;110183;-62
2023/07/03 00:24:48;;;;;;;;;;;17.80;99.90;;;;;;7335831;19;112408;-62
2023/07/03 00:27:15;;;;;;;;;;;17.80;99.70;;;;;;7334262;19;108588;-62
2023/07/03 00:29:42;;;;;;;;;;;17.80;99.90;;;;;;7335352;19;113079;-62
2023/07/03 00:32:09;;;;;;;;;;;17.80;99.90;;;;;;7335349;19;108743;-62
2023/07/03 00:34:36;;;;;;;;;;;17.80;99.80;;;;;;7331562;19;108920;-62
2023/07/03 00:37:03;;;;;;;;;;;17.80;99.90;;;;;;7341235;19;109225;-62
2023/07/03 00:39:30;;;;;;;;;;;17.80;99.90;;;;;;7336379;19;110433;-62
2023/07/03 00:41:58;;;;;;;;;;;17.80;99.90;;;;;;7332881;19;109116;-62
2023/07/03 00:44:25;;;;;;;;;;;17.80;99.90;;;;;;7336770;19;109412;-62
2023/07/03 00:46:52;;;;;;;;;;;17.80;99.90;;;;;;7335649;19;110680;-62
2023/07/03 00:49:20;;;;;;;;;;;17.80;99.90;;;;;;7334743;19;109631;-62
2023/07/03 00:51:51;;;;;;;;;;;17.70;99.90;;;;;;7332927;19;108726;-62
2023/07/03 00:54:19;;;;;;;;;;;17.70;99.90;;;;;;7334634;19;108987;-62
2023/07/03 00:56:46;;;;;;;;;;;17.70;99.90;;;;;;7336535;19;109459;-62
2023/07/03 00:59:13;;;;;;;;;;;17.70;99.90;;;;;;7335524;19;108400;-63
2023/07/03 01:01:45;;;;;;;;;;;17.70;99.90;;;;;;7336841;19;109448;-62
2023/07/03 01:04:35;;;;;;;;;;;17.70;99.90;;;;;;7332714;19;108987;-62
2023/07/03 01:07:13;;;;;;;;;;;17.70;99.90;;;;;;7334502;19;113942;-61
2023/07/03 01:09:48;;;;;;;;;;;17.70;99.90;;;;;;7334724;19;109440;-61
2023/07/03 01:12:15;;;;;;;;;;;17.70;99.90;;;;;;7334728;19;109214;-62
2023/07/03 01:14:43;;;;;;;;;;;17.70;99.90;;;;;;7337300;19;109999;-62
2023/07/03 01:17:12;;;;;;;;;;;17.60;99.90;;;;;;7333107;19;109591;-61
2023/07/03 01:19:40;;;;;;;;;;;17.60;99.90;;;;;;7339701;19;108702;-61
2023/07/03 01:22:12;;;;;;;;;;;17.60;99.90;;;;;;7333418;19;109283;-62
2023/07/03 01:24:50;;;;;;;;;;;17.60;99.90;;;;;;7333102;19;109088;-61
2023/07/03 01:27:19;;;;;;;;;;;17.60;99.90;;;;;;7332614;19;109677;-62
2023/07/03 01:29:47;;;;;;;;;;;17.60;99.90;;;;;;7333197;19;109649;-61
2023/07/03 01:32:14;;;;;;;;;;;17.60;99.90;;;;;;7336618;19;108567;-61
2023/07/03 01:34:43;;;;;;;;;;;17.50;99.90;;;;;;7331655;19;109612;-61
2023/07/03 01:37:10;;;;;;;;;;;17.60;99.90;;;;;;7334547;19;109220;-61
2023/07/03 01:39:38;;;;;;;;;;;17.50;99.90;;;;;;7334124;19;109255;-61
2023/07/03 01:42:07;;;;;;;;;;;17.50;99.90;;;;;;7338601;19;109352;-61
2023/07/03 01:44:34;;;;;;;;;;;17.50;99.90;;;;;;7329575;19;108643;-62
2023/07/03 01:47:11;;;;;;;;;;;17.50;99.90;;;;;;7332971;19;108713;-62
2023/07/03 01:49:39;;;;;;;;;;;17.50;99.90;;;;;;7333742;19;110043;-62
2023/07/03 01:52:06;;;;;;;;;;;17.50;99.90;;;;;;7332018;19;109869;-62
2023/07/03 01:54:40;;;;;;;;;;;17.50;99.90;;;;;;7334557;19;119824;-62
2023/07/03 01:57:09;;;;;;;;;;;17.50;99.90;;;;;;7328850;19;111810;-62
2023/07/03 01:59:36;;;;;;;;;;;17.50;99.90;;;;;;7343391;19;109463;-95
2023/07/03 02:02:10;;;;;;;;;;;17.50;99.90;;;;;;7331242;19;108767;-61
2023/07/03 02:04:40;;;;;;;;;;;17.50;99.90;;;;;;7336678;19;109078;-62
2023/07/03 02:07:11;;;;;;;;;;;17.50;99.90;;;;;;7332526;19;109283;-62
2023/07/03 02:09:40;;;;;;;;;;;17.50;99.90;;;;;;7333513;19;109552;-61
2023/07/03 02:12:08;;;;;;;;;;;17.50;99.90;;;;;;7330248;19;108469;-61
2023/07/03 02:14:35;;;;;;;;;;;17.50;99.90;;;;;;7329486;19;109694;-61
2023/07/03 02:17:03;;;;;;;;;;;17.40;99.90;;;;;;7333942;19;109092;-61
2023/07/03 02:19:33;;;;;;;;;;;17.40;99.90;;;;;;7332957;19;108787;-61
2023/07/03 02:22:00;;;;;;;;;;;17.40;99.90;;;;;;7330920;19;108694;-63
2023/07/03 02:24:27;;;;;;;;;;;17.40;99.90;;;;;;7329769;19;111468;-62
2023/07/03 02:26:54;;;;;;;;;;;17.40;99.90;;;;;;7334306;19;110829;-62
2023/07/03 02:29:22;;;;;;;;;;;17.40;99.90;;;;;;7331265;19;109114;-61
2023/07/03 02:31:49;;;;;;;;;;;17.40;99.90;;;;;;7328874;19;110058;-61
2023/07/03 02:34:16;;;;;;;;;;;17.40;99.90;;;;;;7327530;19;109430;-61
2023/07/03 02:36:45;;;;;;;;;;;17.40;99.90;;;;;;7333050;19;110347;-61
2023/07/03 02:39:12;;;;;;;;;;;17.40;99.90;;;;;;7327503;19;110307;-66
2023/07/03 02:41:39;;;;;;;;;;;17.30;99.90;;;;;;7335838;19;109008;-62
2023/07/03 02:44:06;;;;;;;;;;;17.30;99.90;;;;;;7331977;19;109082;-61
2023/07/03 02:46:34;;;;;;;;;;;17.30;99.90;;;;;;7333846;19;108931;-62
2023/07/03 02:49:01;;;;;;;;;;;17.40;99.90;;;;;;7336592;19;109110;-61
2023/07/03 02:51:28;;;;;;;;;;;17.40;99.90;;;;;;7334238;19;111915;-61
2023/07/03 02:53:55;;;;;;;;;;;17.30;99.90;;;;;;7330291;19;108763;-62
2023/07/03 02:56:23;;;;;;;;;;;17.40;99.90;;;;;;7330810;19;112766;-62
2023/07/03 02:58:50;;;;;;;;;;;17.40;99.90;;;;;;7329272;19;111048;-61
2023/07/03 03:01:17;;;;;;;;;;;17.30;99.90;;;;;;7322591;19;113002;-62
2023/07/03 03:03:44;;;;;;;;;;;17.30;99.90;;;;;;7329971;19;109527;-58
2023/07/03 03:06:11;;;;;;;;;;;17.30;99.90;;;;;;7328445;19;108964;-61
2023/07/03 03:08:38;;;;;;;;;;;17.30;99.90;;;;;;7331270;19;109148;-64
2023/07/03 03:11:06;;;;;;;;;;;17.30;99.90;;;;;;7333695;19;109120;-62
2023/07/03 03:13:33;;;;;;;;;;;17.40;99.90;;;;;;7333012;19;109106;-63
2023/07/03 03:16:00;;;;;;;;;;;17.40;99.90;;;;;;7324499;19;109845;-62
2023/07/03 03:18:27;;;;;;;;;;;17.30;99.90;;;;;;7336708;19;109870;-61
2023/07/03 03:20:54;;;;;;;;;;;17.40;99.90;;;;;;7327685;19;110069;-65
2023/07/03 03:23:21;;;;;;;;;;;17.40;99.90;;;;;;7329562;19;110759;-62
2023/07/03 03:25:48;;;;;;;;;;;17.30;99.90;;;;;;7339351;19;109955;-62
2023/07/03 03:28:16;;;;;;;;;;;17.30;99.90;;;;;;7334977;19;108613;-62
2023/07/03 03:30:43;;;;;;;;;;;17.30;99.90;;;;;;7342061;19;109777;-61
2023/07/03 03:33:10;;;;;;;;;;;17.40;99.90;;;;;;7338175;19;109414;-61
2023/07/03 03:35:37;;;;;;;;;;;17.40;99.90;;;;;;7335698;19;109435;-61
2023/07/03 03:38:04;;;;;;;;;;;17.30;99.90;;;;;;7338089;19;108763;-62
2023/07/03 03:40:31;;;;;;;;;;;17.30;99.90;;;;;;7336373;19;109669;-62
2023/07/03 03:42:58;;;;;;;;;;;17.40;99.90;;;;;;7338832;19;110214;-61
2023/07/03 03:45:25;;;;;;;;;;;17.40;99.90;;;;;;7335589;19;109990;-62
2023/07/03 03:47:52;;;;;;;;;;;17.40;99.90;;;;;;7338757;19;108639;-62
2023/07/03 03:50:19;;;;;;;;;;;17.40;99.90;;;;;;7332212;19;110520;-63
2023/07/03 03:52:47;;;;;;;;;;;17.40;99.90;;;;;;7345594;19;108268;-63
2023/07/03 03:55:14;;;;;;;;;;;17.50;99.90;;;;;;7337765;19;110084;-63
2023/07/03 03:57:41;;;;;;;;;;;17.50;99.90;;;;;;7339046;19;108858;-63
2023/07/03 04:00:20;;;;;;;;;;;17.50;99.90;;;;;;7336617;19;109642;-63
2023/07/03 04:02:48;;;;;;;;;;;17.40;99.90;;;;;;7336560;19;110106;-63
2023/07/03 04:05:15;;;;;;;;;;;17.50;99.90;;;;;;7338038;19;109553;-63
2023/07/03 04:07:43;;;;;;;;;;;17.50;99.90;;;;;;7336161;19;109297;-63
2023/07/03 04:10:11;;;;;;;;;;;17.50;99.90;;;;;;7337999;19;109659;-63
2023/07/03 04:12:38;;;;;;;;;;;17.50;99.90;;;;;;7337633;19;112772;-63
2023/07/03 04:15:05;;;;;;;;;;;17.50;99.90;;;;;;7344304;19;109335;-63
2023/07/03 04:17:32;;;;;;;;;;;17.50;99.90;;;;;;7335524;19;109442;-63
2023/07/03 04:20:00;;;;;;;;;;;17.50;99.90;;;;;;7339254;19;109383;-63
2023/07/03 04:22:27;;;;;;;;;;;17.50;99.90;;;;;;7336008;19;109659;-63
2023/07/03 04:24:54;;;;;;;;;;;17.60;99.90;;;;;;7339678;19;108678;-63
2023/07/03 04:27:21;;;;;;;;;;;17.60;99.90;;;;;;7336420;19;109225;-63
2023/07/03 04:29:48;;;;;;;;;;;17.60;99.90;;;;;;7337363;19;109370;-63
2023/07/03 04:32:15;;;;;;;;;;;17.50;99.90;;;;;;7335102;19;108721;-63
2023/07/03 04:34:42;;;;;;;;;;;17.60;99.90;;;;;;7337820;19;109151;-63
2023/07/03 04:37:09;;;;;;;;;;;17.60;99.90;;;;;;7342355;19;109130;-63
2023/07/03 04:39:36;;;;;;;;;;;17.50;99.90;;;;;;7336819;19;108898;-63
2023/07/03 04:42:03;;;;;;;;;;;17.60;99.90;;;;;;7337292;19;109708;-63
2023/07/03 04:44:33;;;;;;;;;;;17.50;99.90;;;;;;7333734;19;108778;-63
2023/07/03 04:47:04;;;;;;;;;;;17.60;99.90;;;;;;7337644;19;111062;-63
2023/07/03 04:49:32;;;;;;;;;;;17.60;99.90;;;;;;7333470;19;109377;-63
2023/07/03 04:51:59;;;;;;;;;;;17.50;99.90;;;;;;7335644;19;108545;-63
2023/07/03 04:54:29;;;;;;;;;;;17.60;99.90;;;;;;7334761;19;108709;-63
2023/07/03 04:56:56;;;;;;;;;;;17.60;99.90;;;;;;7336113;19;109710;-62
2023/07/03 04:59:23;;;;;;;;;;;17.70;99.90;;;;;;7340890;19;109890;-63
2023/07/03 05:01:50;;;;;;;;;;;17.70;99.90;;;;;;7333933;19;110423;-63
2023/07/03 05:04:18;;;;;;;;;;;17.70;99.90;;;;;;7335688;19;110511;-63
2023/07/03 05:06:46;;;;;;;;;;;17.80;99.90;;;;;;7336847;19;108360;-62
2023/07/03 05:09:13;;;;;;;;;;;17.80;99.90;;;;;;7335102;19;110460;-64
2023/07/03 05:11:41;;;;;;;;;;;17.80;99.90;;;;;;7336977;19;109213;-63
2023/07/03 05:14:08;;;;;;;;;;;17.80;99.90;;;;;;7336561;19;109129;-63
2023/07/03 05:16:35;;;;;;;;;;;17.80;99.90;;;;;;7336102;19;110003;-63
2023/07/03 05:19:02;;;;;;;;;;;17.80;99.90;;;;;;7338457;19;108925;-63
2023/07/03 05:21:29;;;;;;;;;;;17.70;99.90;;;;;;7342712;19;110093;-63
2023/07/03 05:23:56;;;;;;;;;;;17.80;99.90;;;;;;7333204;19;109059;-63
2023/07/03 05:26:24;;;;;;;;;;;17.80;99.90;;;;;;7333569;19;109357;-63
2023/07/03 05:28:51;;;;;;;;;;;17.80;99.90;;;;;;7335345;19;110976;-63
2023/07/03 05:31:22;;;;;;;;;;;17.90;99.90;;;;;;7334817;19;110011;-63
2023/07/03 05:33:49;;;;;;;;;;;17.90;99.90;;;;;;7333687;19;112610;-63
2023/07/03 05:36:17;;;;;;;;;;;18.00;99.90;;;;;;7334634;19;110458;-62
2023/07/03 05:38:44;;;;;;;;;;;18.00;99.90;;;;;;7335188;19;108565;-63
2023/07/03 05:41:11;;;;;;;;;;;18.10;99.90;;;;;;7338506;19;108727;-63
2023/07/03 05:43:38;;;;;;;;;;;18.20;99.90;;;;;;7337774;19;109245;-63
2023/07/03 05:46:05;;;;;;;;;;;18.20;99.90;;;;;;7332983;19;108845;-63
2023/07/03 05:48:32;;;;;;;;;;;18.30;99.90;;;;;;7335729;19;111717;-63
2023/07/03 05:50:59;;;;;;;;;;;18.30;99.90;;;;;;7336572;19;108555;-63
2023/07/03 05:53:26;;;;;;;;;;;18.40;99.90;;;;;;7335609;19;108612;-63
2023/07/03 05:55:54;;;;;;;;;;;18.40;99.90;;;;;;7335833;19;109674;-63
2023/07/03 05:58:22;;;;;;;;;;;18.50;99.90;;;;;;7330291;19;110051;-63
2023/07/03 06:00:49;;;;;;;;;;;18.60;99.90;;;;;;7336040;19;109472;-63
2023/07/03 06:03:16;;;;;;;;;;;18.60;99.90;;;;;;7337497;19;109446;-63
2023/07/03 06:05:47;;;;;;;;;;;18.70;99.90;;;;;;7335564;19;109454;-63
2023/07/03 06:08:15;;;;;;;;;;;18.80;99.90;;;;;;7333277;19;110565;-60
2023/07/03 06:10:42;;;;;;;;;;;18.80;99.90;;;;;;7335989;19;109233;-60
2023/07/03 06:13:09;;;;;;;;;;;18.90;99.90;;;;;;7333638;19;110506;-60
2023/07/03 06:15:36;;;;;;;;;;;19.00;99.90;;;;;;7333731;19;110306;-60
2023/07/03 06:18:03;;;;;;;;;;;19.10;99.90;;;;;;7333331;19;108951;-60
2023/07/03 06:20:31;;;;;;;;;;;19.10;99.90;;;;;;7334843;19;108409;-60
2023/07/03 06:22:58;;;;;;;;;;;19.20;99.90;;;;;;7333345;19;109096;-60
2023/07/03 06:25:25;;;;;;;;;;;19.30;99.90;;;;;;7339478;19;109420;-60
2023/07/03 06:27:52;;;;;;;;;;;19.30;99.90;;;;;;7334536;19;109157;-61
2023/07/03 06:30:19;;;;;;;;;;;19.30;99.90;;;;;;7331767;19;109209;-61
2023/07/03 06:32:46;;;;;;;;;;;19.30;99.90;;;;;;7335026;19;110226;-61
2023/07/03 06:35:14;;;;;;;;;;;19.30;99.90;;;;;;7331918;19;110062;-60
2023/07/03 06:37:41;;;;;;;;;;;19.40;99.90;;;;;;7334476;19;108513;-62
2023/07/03 06:40:12;;;;;;;;;;;19.30;99.90;;;;;;7333041;19;109029;-62
2023/07/03 06:42:39;;;;;;;;;;;19.40;99.90;;;;;;7331377;19;109938;-61
2023/07/03 06:45:06;;;;;;;;;;;19.30;99.90;;;;;;7332628;19;109046;-61
2023/07/03 06:47:33;;;;;;;;;;;19.40;99.90;;;;;;7340469;19;110244;-62
2023/07/03 06:50:01;;;;;;;;;;;19.40;99.90;;;;;;7329694;19;108862;-61
2023/07/03 06:52:28;;;;;;;;;;;19.40;99.90;;;;;;7339359;19;108694;-61
2023/07/03 06:54:55;;;;;;;;;;;19.50;99.90;;;;;;7346632;19;109620;-61
2023/07/03 06:57:22;;;;;;;;;;;19.50;99.90;;;;;;7346765;19;108889;-61
2023/07/03 06:59:50;;;;;;;;;;;19.60;99.90;;;;;;7345906;19;109491;-61
2023/07/03 07:02:17;;;;;;;;;;;19.60;99.90;;;;;;7345858;19;109128;-61
2023/07/03 07:04:45;;;;;;;;;;;19.70;99.90;;;;;;7346369;19;110643;-60
2023/07/03 07:07:12;;;;;;;;;;;19.70;99.90;;;;;;7347453;19;112920;-61
2023/07/03 07:09:39;;;;;;;;;;;19.80;99.90;;;;;;7353625;19;110261;-61
2023/07/03 07:12:06;;;;;;;;;;;19.90;99.90;;;;;;7348305;19;109281;-61
2023/07/03 07:14:33;;;;;;;;;;;20.00;99.90;;;;;;7345333;19;110008;-60
2023/07/03 07:17:00;;;;;;;;;;;20.10;99.90;;;;;;7346776;19;108922;-61
2023/07/03 07:19:28;;;;;;;;;;;20.10;99.90;;;;;;7346372;19;109283;-61
2023/07/03 07:21:55;;;;;;;;;;;20.20;99.90;;;;;;7342994;19;109158;-65
2023/07/03 07:24:23;;;;;;;;;;;20.30;99.90;;;;;;7344106;19;109314;-61
2023/07/03 07:26:55;;;;;;;;;;;20.30;99.90;;;;;;7344994;19;108759;-61
2023/07/03 07:29:24;;;;;;;;;;;20.40;99.90;;;;;;7346441;19;110073;-61
2023/07/03 07:31:55;;;;;;;;;;;20.30;99.90;;;;;;7350030;19;108769;-61
2023/07/03 07:34:23;;;;;;;;;;;20.30;99.90;;;;;;7345160;19;110203;-61
2023/07/03 07:36:50;;;;;;;;;;;20.30;99.90;;;;;;7345507;19;109132;-61
2023/07/03 07:39:21;;;;;;;;;;;20.20;99.90;;;;;;7345268;19;109472;-61
2023/07/03 07:41:50;;;;;;;;;;;20.20;99.90;;;;;;7344530;19;109200;-61
2023/07/03 07:44:18;;;;;;;;;;;20.20;99.90;;;;;;7343497;19;108873;-61
2023/07/03 07:46:45;;;;;;;;;;;20.20;99.90;;;;;;7343975;19;109078;-61
2023/07/03 07:49:12;;;;;;;;;;;20.10;99.90;;;;;;7345911;19;109951;-61
2023/07/03 07:51:40;;;;;;;;;;;20.10;99.90;;;;;;7350577;19;109345;-60
2023/07/03 07:54:07;;;;;;;;;;;20.20;99.90;;;;;;7347760;19;111527;-61
2023/07/03 07:56:34;;;;;;;;;;;20.20;99.90;;;;;;7341569;19;109218;-61
2023/07/03 07:59:01;;;;;;;;;;;20.10;99.90;;;;;;7345424;19;109414;-61
2023/07/03 08:01:28;;;;;;;;;;;20.20;99.90;;;;;;7344512;19;110971;-61
2023/07/03 08:03:55;;;;;;;;;;;20.20;99.90;;;;;;7342940;19;108302;-61
2023/07/03 08:06:23;;;;;;;;;;;20.20;99.90;;;;;;7334670;19;109376;-61
2023/07/03 08:08:50;;;;;;;;;;;20.20;99.90;;;;;;7336815;19;109482;-61
2023/07/03 08:11:17;;;;;;;;;;;20.30;99.90;;;;;;7338075;19;109484;-61
2023/07/03 08:13:44;;;;;;;;;;;20.50;99.90;;;;;;7342669;19;108523;-60
2023/07/03 08:16:13;;;;;;;;;;;20.60;99.90;;;;;;7334819;19;108760;-60
2023/07/03 08:18:40;;;;;;;;;;;20.80;99.90;;;;;;7339847;19;109145;-61
2023/07/03 08:21:07;;;;;;;;;;;20.90;99.90;;;;;;7336509;19;109779;-60
2023/07/03 08:23:34;;;;;;;;;;;20.90;99.90;;;;;;7332961;19;108661;-61
2023/07/03 08:26:02;;;;;;;;;;;21.00;99.90;;;;;;7337120;19;108541;-61
2023/07/03 08:28:29;;;;;;;;;;;21.00;99.90;;;;;;7334651;19;112115;-60
2023/07/03 08:31:00;;;;;;;;;;;21.00;99.90;;;;;;7336770;19;109989;-61
2023/07/03 08:33:27;;;;;;;;;;;21.10;99.90;;;;;;7337877;19;109905;-61
2023/07/03 08:35:55;;;;;;;;;;;21.20;99.90;;;;;;7343989;19;109070;-61
2023/07/03 08:38:25;;;;;;;;;;;21.30;99.90;;;;;;7332148;19;110730;-62
2023/07/03 08:40:59;;;;;;;;;;;21.30;99.90;;;;;;7340160;19;108936;-61
2023/07/03 08:43:32;;;;;;;;;;;21.30;99.90;;;;;;7337993;19;108827;-61
2023/07/03 08:46:00;;;;;;;;;;;21.20;99.90;;;;;;7339293;19;109529;-63
2023/07/03 08:48:28;;;;;;;;;;;21.20;99.90;;;;;;7334826;19;109287;-61
2023/07/03 08:50:57;;;;;;;;;;;21.20;99.90;;;;;;7337873;19;109403;-61
2023/07/03 08:53:26;;;;;;;;;;;21.20;99.90;;;;;;7333726;19;108560;-61
2023/07/03 08:56:20;;;;;;;;;;;21.20;99.90;;;;;;7333194;19;109637;-61
2023/07/03 08:58:51;;;;;;;;;;;21.20;99.90;;;;;;7345266;19;109392;-61
2023/07/03 09:01:41;;;;;;;;;;;21.10;99.90;;;;;;7333896;19;109293;-61
2023/07/03 09:04:17;;;;;;;;;;;21.10;99.90;;;;;;7337663;19;108855;-61
2023/07/03 09:06:53;;;;;;;;;;;21.10;99.90;;;;;;7336774;19;109495;-61
2023/07/03 09:09:23;;;;;;;;;;;21.10;99.90;;;;;;7335481;19;110114;-62
2023/07/03 09:11:54;;;;;;;;;;;21.00;99.90;;;;;;7337946;19;108269;-61
2023/07/03 09:14:24;;;;;;;;;;;21.00;99.90;;;;;;7335968;19;110059;-61
2023/07/03 09:16:51;;;;;;;;;;;20.90;99.90;;;;;;7335248;19;110303;-61
2023/07/03 09:19:21;;;;;;;;;;;20.90;99.90;;;;;;7335221;19;110598;-61
2023/07/03 09:21:53;;;;;;;;;;;20.90;99.90;;;;;;7340278;19;108905;-61
2023/07/03 09:24:49;;;;;;;;;;;20.90;99.90;;;;;;7336641;19;109581;-61
2023/07/03 09:27:24;;;;;;;;;;;21.00;99.90;;;;;;7333328;19;108937;-61
2023/07/03 09:29:52;;;;;;;;;;;21.10;99.90;;;;;;7336163;19;110068;-61
2023/07/03 09:32:27;;;;;;;;;;;21.20;99.90;;;;;;7334200;19;109601;-61
2023/07/03 09:34:57;;;;;;;;;;;21.30;99.90;;;;;;7336971;19;109105;-61
2023/07/03 09:37:24;;;;;;;;;;;21.40;99.90;;;;;;7335398;19;110839;-61
2023/07/03 09:39:52;;;;;;;;;;;21.60;99.90;;;;;;7333065;19;108887;-61
2023/07/03 09:42:20;;;;;;;;;;;21.60;99.90;;;;;;7340848;19;108802;-61
2023/07/03 09:44:48;;;;;;;;;;;21.70;99.90;;;;;;7336172;19;109365;-61
2023/07/03 09:47:16;;;;;;;;;;;21.70;99.90;;;;;;7334816;19;109715;-62
2023/07/03 09:49:44;;;;;;;;;;;21.90;99.90;;;;;;7334058;19;110151;-61
2023/07/03 09:52:11;;;;;;;;;;;22.10;99.90;;;;;;7334690;19;108753;-61
2023/07/03 09:54:41;;;;;;;;;;;22.10;99.90;;;;;;7332907;19;109704;-61
2023/07/03 09:57:25;;;;;;;;;;;22.20;99.60;;;;;;7334944;19;109183;-61
2023/07/03 10:00:09;;;;;;;;;;;22.20;99.40;;;;;;7331701;19;109406;-61
2023/07/03 10:02:36;;;;;;;;;;;22.30;99.60;;;;;;7331170;19;108693;-61
2023/07/03 10:05:06;;;;;;;;;;;22.40;99.20;;;;;;7337597;19;109611;-61
2023/07/03 10:07:40;;;;;;;;;;;22.50;98.80;;;;;;7330836;19;109306;-62
2023/07/03 10:10:10;;;;;;;;;;;22.60;98.20;;;;;;7330560;19;110590;-60
2023/07/03 10:12:43;;;;;;;;;;;22.70;96.10;;;;;;7332367;19;108404;-61
2023/07/03 10:15:13;;;;;;;;;;;22.70;96.70;;;;;;7332488;19;108220;-62
2023/07/03 10:17:45;;;;;;;;;;;22.70;95.90;;;;;;7333790;19;109508;-62
2023/07/03 10:20:43;;;;;;;;;;;22.60;95.50;;;;;;7336640;19;108993;-62
2023/07/03 10:23:12;;;;;;;;;;;22.50;95.10;;;;;;7334862;19;109113;-61
2023/07/03 10:25:41;;;;;;;;;;;22.40;96.00;;;;;;7333528;19;109305;-62
2023/07/03 10:28:11;;;;;;;;;;;22.50;96.40;;;;;;7335987;19;109852;-61
2023/07/03 10:30:39;;;;;;;;;;;22.60;96.60;;;;;;7336105;19;109085;-61
2023/07/03 10:33:10;;;;;;;;;;;22.80;96.40;;;;;;7336987;19;109941;-61
2023/07/03 10:35:41;;;;;;;;;;;23.10;95.70;;;;;;7336122;19;109768;-62
2023/07/03 10:38:15;;;;;;;;;;;23.20;95.10;;;;;;7327660;19;111133;-62
2023/07/03 10:41:03;;;;;;;;;;;23.40;95.20;;;;;;7336866;19;109323;-62
2023/07/03 10:43:42;;;;;;;;;;;23.50;94.70;;;;;;7333296;19;108741;-61
2023/07/03 10:46:14;;;;;;;;;;;23.50;94.70;;;;;;7334662;19;109307;-62
2023/07/03 10:48:42;;;;;;;;;;;23.50;94.30;;;;;;7335319;19;109842;-66
2023/07/03 10:51:24;;;;;;;;;;;23.40;93.90;;;;;;7338352;19;108704;-62
2023/07/03 10:54:03;;;;;;;;;;;23.40;93.20;;;;;;7331779;19;109445;-62
2023/07/03 10:56:44;;;;;;;;;;;23.30;93.80;;;;;;7329066;19;109815;-61
2023/07/03 10:59:12;;;;;;;;;;;23.30;92.90;;;;;;7333939;19;109586;-62
2023/07/03 11:01:44;;;;;;;;;;;23.30;93.10;;;;;;7332881;19;108454;-61
2023/07/03 11:04:40;;;;;;;;;;;23.20;93.00;;;;;;7332008;19;109012;-61
2023/07/03 11:07:13;;;;;;;;;;;23.10;93.00;;;;;;7331814;19;110322;-62
2023/07/03 11:10:06;;;;;;;;;;;23.00;92.80;;;;;;7334099;19;109221;-62
2023/07/03 11:12:43;;;;;;;;;;;23.00;92.50;;;;;;7330500;19;108835;-62
2023/07/03 11:15:18;;;;;;;;;;;22.90;92.90;;;;;;7335616;19;109155;-61
2023/07/03 11:17:51;;;;;;;;;;;22.90;93.10;;;;;;7333160;19;109037;-61
2023/07/03 11:20:28;;;;;;;;;;;22.90;92.60;;;;;;7329390;19;109531;-62
2023/07/03 11:23:15;;;;;;;;;;;23.00;92.70;;;;;;7332345;19;108457;-61
2023/07/03 11:25:46;;;;;;;;;;;23.20;92.50;;;;;;7333444;19;108811;-61
2023/07/03 11:28:19;;;;;;;;;;;23.20;92.40;;;;;;7333294;19;108826;-62
2023/07/03 11:30:49;;;;;;;;;;;23.20;92.40;;;;;;7331829;19;108860;-61
2023/07/03 11:33:17;;;;;;;;;;;23.20;92.40;;;;;;7331966;19;109111;-62
2023/07/03 11:35:54;;;;;;;;;;;23.10;92.60;;;;;;7331439;19;110085;-62
2023/07/03 11:38:21;;;;;;;;;;;23.10;92.80;;;;;;7335365;19;109440;-68
2023/07/03 11:40:54;;;;;;;;;;;23.10;92.90;;;;;;7337296;19;109172;-62
2023/07/03 11:43:33;;;;;;;;;;;23.00;93.20;;;;;;7336751;19;108428;-63
2023/07/03 11:46:03;;;;;;;;;;;23.00;93.60;;;;;;7337003;19;109909;-63
2023/07/03 11:48:32;;;;;;;;;;;23.00;93.40;;;;;;7338566;19;109117;-63
2023/07/03 11:51:03;;;;;;;;;;;23.00;94.00;;;;;;7337701;19;108470;-63
2023/07/03 11:53:53;;;;;;;;;;;23.00;94.10;;;;;;7336238;19;108579;-63
2023/07/03 11:56:44;;;;;;;;;;;23.20;94.00;;;;;;7337195;19;109118;-63
2023/07/03 11:59:24;;;;;;;;;;;23.20;93.30;;;;;;7345151;19;108774;-63
2023/07/03 12:01:53;;;;;;;;;;;23.20;93.30;;;;;;7336930;19;109549;-63
2023/07/03 12:04:43;;;;;;;;;;;23.20;93.90;;;;;;7339298;19;109937;-63
2023/07/03 12:07:21;;;;;;;;;;;23.20;93.70;;;;;;7337552;19;109238;-62
2023/07/03 12:09:50;;;;;;;;;;;23.20;94.00;;;;;;7340677;19;109336;-63
2023/07/03 12:12:18;;;;;;;;;;;23.30;93.80;;;;;;7337858;19;108532;-63
2023/07/03 12:14:56;;;;;;;;;;;23.20;93.30;;;;;;7335282;19;110501;-63
2023/07/03 12:17:31;;;;;;;;;;;23.20;93.60;;;;;;7336154;19;112705;-64
2023/07/03 12:20:16;;;;;;;;;;;23.20;93.90;;;;;;7339109;19;110373;-62
2023/07/03 12:22:45;;;;;;;;;;;23.20;93.90;;;;;;7342994;19;109121;-63
2023/07/03 12:25:32;;;;;;;;;;;23.20;94.00;;;;;;7336277;19;108807;-63
2023/07/03 12:28:10;;;;;;;;;;;23.40;93.10;;;;;;7339501;19;109118;-63
2023/07/03 12:30:38;;;;;;;;;;;23.50;92.80;;;;;;7336996;19;109607;-61
2023/07/03 12:33:06;;;;;;;;;;;23.40;92.20;;;;;;7339018;19;109025;-63
2023/07/03 12:35:34;;;;;;;;;;;23.30;92.50;;;;;;7337895;19;108964;-66
2023/07/03 12:38:06;;;;;;;;;;;23.20;92.90;;;;;;7337216;19;109234;-63
2023/07/03 12:40:40;;;;;;;;;;;23.30;92.70;;;;;;7338501;19;109366;-62
2023/07/03 12:43:07;;;;;;;;;;;23.40;93.00;;;;;;7337455;19;108741;-63
2023/07/03 12:45:34;;;;;;;;;;;23.60;93.00;;;;;;7343680;19;111961;-63
2023/07/03 12:48:06;;;;;;;;;;;23.70;93.10;;;;;;7338891;19;109031;-64
2023/07/03 12:50:34;;;;;;;;;;;23.80;92.90;;;;;;7336155;19;110307;-63
2023/07/03 12:53:02;;;;;;;;;;;23.90;93.10;;;;;;7337659;19;108911;-63
2023/07/03 12:55:31;;;;;;;;;;;24.10;92.40;;;;;;7337845;19;108816;-89
2023/07/03 12:57:59;;;;;;;;;;;24.10;92.50;;;;;;7331597;19;109774;-88
2023/07/03 13:00:30;;;;;;;;;;;24.20;91.90;;;;;;7332717;19;109876;-88
2023/07/03 13:02:58;;;;;;;;;;;24.30;91.80;;;;;;7333256;19;111763;-90
2023/07/03 13:05:30;;;;;;;;;;;24.30;91.50;;;;;;7332855;19;110544;-90
2023/07/03 13:07:58;;;;;;;;;;;24.10;91.30;;;;;;7338008;19;109488;-90
2023/07/03 13:10:25;;;;;;;;;;;24.00;91.90;;;;;;7330649;19;110527;-88
2023/07/03 13:13:22;;;;;;;;;;;24.00;91.00;;;;;;7326745;19;109079;-89
2023/07/03 13:15:49;;;;;;;;;;;23.90;91.40;;;;;;7327591;19;112845;-90
2023/07/03 13:18:19;;;;;;;;;;;24.00;91.50;;;;;;7330157;19;112305;-90
2023/07/03 13:20:57;;;;;;;;;;;24.00;92.00;;;;;;7336275;19;112028;-63
2023/07/03 13:23:38;;;;;;;;;;;24.20;92.40;;;;;;7336353;19;108866;-64
2023/07/03 13:26:12;;;;;;;;;;;24.30;92.10;;;;;;7333792;19;111702;-63
2023/07/03 13:28:59;;;;;;;;;;;24.30;90.90;;;;;;7335373;19;108891;-64
2023/07/03 13:31:30;;;;;;;;;;;24.40;91.30;;;;;;7339312;19;108870;-63
2023/07/03 13:34:18;;;;;;;;;;;24.60;90.90;;;;;;7336669;19;109932;-63
2023/07/03 13:36:52;;;;;;;;;;;24.60;90.60;;;;;;7336782;19;108853;-64
2023/07/03 13:39:19;;;;;;;;;;;24.60;90.80;;;;;;7333044;19;110378;-63
2023/07/03 13:41:47;;;;;;;;;;;24.70;89.30;;;;;;7336752;19;108431;-63
2023/07/03 13:44:18;;;;;;;;;;;24.70;90.20;;;;;;7335166;19;110133;-64
2023/07/03 13:46:48;;;;;;;;;;;24.80;90.30;;;;;;7336548;19;109110;-63
2023/07/03 13:49:16;;;;;;;;;;;24.80;89.20;;;;;;7336480;19;108700;-63
2023/07/03 13:51:47;;;;;;;;;;;24.70;88.60;;;;;;7334082;19;109278;-63
2023/07/03 13:54:14;;;;;;;;;;;24.50;88.90;;;;;;7340960;19;109942;-63
2023/07/03 13:56:42;;;;;;;;;;;24.50;90.00;;;;;;7333566;19;108726;-64
2023/07/03 13:59:09;;;;;;;;;;;24.50;90.20;;;;;;7332899;19;109178;-63
2023/07/03 14:01:37;;;;;;;;;;;24.50;90.30;;;;;;7332771;19;110393;-63
2023/07/03 14:04:05;;;;;;;;;;;24.50;90.70;;;;;;7335398;19;110052;-63
2023/07/03 14:06:32;;;;;;;;;;;24.70;91.10;;;;;;7333555;19;110721;-63
2023/07/03 14:09:00;;;;;;;;;;;24.70;90.80;;;;;;7336224;19;108752;-63
2023/07/03 14:11:27;;;;;;;;;;;24.80;90.90;;;;;;7333420;19;110596;-63
2023/07/03 14:13:55;;;;;;;;;;;24.80;90.10;;;;;;7341394;19;110908;-63
2023/07/03 14:16:23;;;;;;;;;;;24.90;90.50;;;;;;7334864;19;109280;-64
2023/07/03 14:18:50;;;;;;;;;;;25.00;90.80;;;;;;7335408;19;110045;-63